sensor_id;sensor_type;location;lat;lon;timestamp;P1;durP1;ratioP1;P2;durP2;ratioP2
25980;SDS011;13772;52.996;9.124;2023-02-08T07:50:20;39.28;;;26.52;;
25980;SDS011;13772;52.996;9.124;2023-02-08T07:52:45;45.38;;;29.75;;
25980;SDS011;13772;52.996;9.124;2023-02-08T07:55:12;44.60;;;28.75;;
25980;SDS011;13772;52.996;9.124;2023-02-08T08:00:06;43.92;;;27.25;;
25980;SDS011;13772;52.996;9.124;2023-02-08T08:02:37;45.90;;;27.85;;
25980;SDS011;13772;52.996;9.124;2023-02-08T08:05:02;46.45;;;28.80;;
25980;SDS011;13772;52.996;9.124;2023-02-08T08:07:27;47.30;;;27.23;;
25980;SDS011;13772;52.996;9.124;2023-02-08T08:09:52;47.40;;;27.42;;
25980;SDS011;13772;52.996;9.124;2023-02-08T08:12:18;45.00;;;26.20;;
25980;SDS011;13772;52.996;9.124;2023-02-08T08:14:43;52.78;;;28.95;;
25980;SDS011;13772;52.996;9.124;2023-02-08T08:17:08;48.45;;;26.98;;
25980;SDS011;13772;52.996;9.124;2023-02-08T08:19:33;48.50;;;25.98;;
25980;SDS011;13772;52.996;9.124;2023-02-08T08:21:58;50.88;;;27.30;;
25980;SDS011;13772;52.996;9.124;2023-02-08T08:24:24;51.60;;;27.88;;
25980;SDS011;13772;52.996;9.124;2023-02-08T08:26:49;48.30;;;25.38;;
25980;SDS011;13772;52.996;9.124;2023-02-08T08:29:14;49.42;;;26.85;;
25980;SDS011;13772;52.996;9.124;2023-02-08T08:31:41;52.88;;;28.20;;
25980;SDS011;13772;52.996;9.124;2023-02-08T08:34:06;53.27;;;26.73;;
25980;SDS011;13772;52.996;9.124;2023-02-08T08:36:31;56.50;;;27.13;;
25980;SDS011;13772;52.996;9.124;2023-02-08T08:38:57;50.93;;;27.53;;
25980;SDS011;13772;52.996;9.124;2023-02-08T08:41:22;51.43;;;26.37;;
25980;SDS011;13772;52.996;9.124;2023-02-08T08:43:47;53.83;;;25.17;;
25980;SDS011;13772;52.996;9.124;2023-02-08T08:46:12;51.90;;;26.07;;
25980;SDS011;13772;52.996;9.124;2023-02-08T08:48:40;55.97;;;27.00;;
25980;SDS011;13772;52.996;9.124;2023-02-08T08:51:05;54.90;;;26.77;;
25980;SDS011;13772;52.996;9.124;2023-02-08T08:53:31;53.70;;;26.67;;
25980;SDS011;13772;52.996;9.124;2023-02-08T08:55:56;51.67;;;25.23;;
25980;SDS011;13772;52.996;9.124;2023-02-08T08:58:21;51.90;;;25.97;;
25980;SDS011;13772;52.996;9.124;2023-02-08T09:00:46;53.53;;;27.00;;
25980;SDS011;13772;52.996;9.124;2023-02-08T09:03:12;52.93;;;25.57;;
25980;SDS011;13772;52.996;9.124;2023-02-08T09:05:37;56.37;;;27.37;;
25980;SDS011;13772;52.996;9.124;2023-02-08T09:08:02;53.57;;;25.50;;
25980;SDS011;13772;52.996;9.124;2023-02-08T09:10:28;53.90;;;27.57;;
25980;SDS011;13772;52.996;9.124;2023-02-08T09:12:54;52.87;;;25.70;;
25980;SDS011;13772;52.996;9.124;2023-02-08T09:15:20;56.63;;;26.93;;
25980;SDS011;13772;52.996;9.124;2023-02-08T09:17:45;54.33;;;27.17;;
25980;SDS011;13772;52.996;9.124;2023-02-08T09:20:10;56.90;;;27.33;;
25980;SDS011;13772;52.996;9.124;2023-02-08T09:22:35;57.47;;;26.63;;
25980;SDS011;13772;52.996;9.124;2023-02-08T09:25:00;51.93;;;26.30;;
25980;SDS011;13772;52.996;9.124;2023-02-08T09:27:26;51.93;;;26.70;;
25980;SDS011;13772;52.996;9.124;2023-02-08T09:29:51;52.07;;;24.83;;
25980;SDS011;13772;52.996;9.124;2023-02-08T09:32:16;49.40;;;26.43;;
25980;SDS011;13772;52.996;9.124;2023-02-08T09:34:42;49.27;;;25.13;;
25980;SDS011;13772;52.996;9.124;2023-02-08T09:37:07;50.43;;;25.03;;
25980;SDS011;13772;52.996;9.124;2023-02-08T09:39:32;56.73;;;27.13;;
25980;SDS011;13772;52.996;9.124;2023-02-08T09:47:13;51.03;;;25.67;;
25980;SDS011;13772;52.996;9.124;2023-02-08T09:49:45;50.83;;;24.67;;
25980;SDS011;13772;52.996;9.124;2023-02-08T09:52:16;42.83;;;22.50;;
25980;SDS011;13772;52.996;9.124;2023-02-08T09:54:44;49.03;;;25.30;;
25980;SDS011;13772;52.996;9.124;2023-02-08T09:57:12;50.53;;;25.03;;
25980;SDS011;13772;52.996;9.124;2023-02-08T09:59:39;48.30;;;23.98;;
25980;SDS011;13772;52.996;9.124;2023-02-08T10:02:18;51.57;;;24.53;;
25980;SDS011;13772;52.996;9.124;2023-02-08T10:04:55;41.40;;;21.27;;
25980;SDS011;13772;52.996;9.124;2023-02-08T10:07:22;45.10;;;22.00;;
25980;SDS011;13772;52.996;9.124;2023-02-08T10:09:48;44.80;;;21.30;;
25980;SDS011;13772;52.996;9.124;2023-02-08T10:14:56;42.20;;;22.80;;
25980;SDS011;13772;52.996;9.124;2023-02-08T10:27:14;42.77;;;21.00;;
25980;SDS011;13772;52.996;9.124;2023-02-08T10:29:50;45.90;;;23.00;;
25980;SDS011;13772;52.996;9.124;2023-02-08T10:32:39;40.60;;;22.42;;
25980;SDS011;13772;52.996;9.124;2023-02-08T10:35:13;39.40;;;21.93;;
25980;SDS011;13772;52.996;9.124;2023-02-08T10:37:40;42.30;;;20.63;;
25980;SDS011;13772;52.996;9.124;2023-02-08T10:42:46;45.15;;;22.80;;
25980;SDS011;13772;52.996;9.124;2023-02-08T10:45:23;40.77;;;21.63;;
25980;SDS011;13772;52.996;9.124;2023-02-08T10:50:19;40.90;;;21.25;;
25980;SDS011;13772;52.996;9.124;2023-02-08T10:52:46;42.75;;;22.55;;
25980;SDS011;13772;52.996;9.124;2023-02-08T10:55:16;38.83;;;20.95;;
25980;SDS011;13772;52.996;9.124;2023-02-08T10:57:42;36.92;;;20.60;;
25980;SDS011;13772;52.996;9.124;2023-02-08T11:00:10;41.38;;;21.88;;
25980;SDS011;13772;52.996;9.124;2023-02-08T11:02:40;39.70;;;22.00;;
25980;SDS011;13772;52.996;9.124;2023-02-08T11:05:07;44.25;;;23.15;;
25980;SDS011;13772;52.996;9.124;2023-02-08T11:07:33;41.20;;;22.00;;
25980;SDS011;13772;52.996;9.124;2023-02-08T11:12:43;38.38;;;21.83;;
25980;SDS011;13772;52.996;9.124;2023-02-08T11:15:21;40.67;;;22.48;;
25980;SDS011;13772;52.996;9.124;2023-02-08T11:20:19;40.86;;;21.66;;
25980;SDS011;13772;52.996;9.124;2023-02-08T11:22:45;39.50;;;21.77;;
25980;SDS011;13772;52.996;9.124;2023-02-08T11:25:12;36.40;;;20.45;;
25980;SDS011;13772;52.996;9.124;2023-02-08T11:27:53;40.53;;;22.17;;
25980;SDS011;13772;52.996;9.124;2023-02-08T11:30:20;42.38;;;22.75;;
25980;SDS011;13772;52.996;9.124;2023-02-08T11:32:46;40.70;;;22.20;;
25980;SDS011;13772;52.996;9.124;2023-02-08T11:35:22;38.08;;;21.30;;
25980;SDS011;13772;52.996;9.124;2023-02-08T11:37:51;40.70;;;22.05;;
25980;SDS011;13772;52.996;9.124;2023-02-08T11:40:23;42.22;;;21.90;;
25980;SDS011;13772;52.996;9.124;2023-02-08T11:42:49;40.45;;;21.35;;
25980;SDS011;13772;52.996;9.124;2023-02-08T11:45:19;40.15;;;22.02;;
25980;SDS011;13772;52.996;9.124;2023-02-08T11:47:45;41.15;;;22.27;;
25980;SDS011;13772;52.996;9.124;2023-02-08T11:50:20;41.22;;;22.08;;
25980;SDS011;13772;52.996;9.124;2023-02-08T11:52:48;37.95;;;21.13;;
25980;SDS011;13772;52.996;9.124;2023-02-08T11:58:02;42.85;;;22.17;;
25980;SDS011;13772;52.996;9.124;2023-02-08T12:00:33;39.60;;;21.23;;
25980;SDS011;13772;52.996;9.124;2023-02-08T12:03:24;40.08;;;21.35;;
25980;SDS011;13772;52.996;9.124;2023-02-08T12:05:51;40.20;;;20.90;;
25980;SDS011;13772;52.996;9.124;2023-02-08T12:08:32;37.50;;;20.33;;
25980;SDS011;13772;52.996;9.124;2023-02-08T12:13:42;33.33;;;18.27;;
25980;SDS011;13772;52.996;9.124;2023-02-08T12:18:43;38.35;;;20.83;;
25980;SDS011;13772;52.996;9.124;2023-02-08T12:21:17;37.10;;;20.35;;
25980;SDS011;13772;52.996;9.124;2023-02-08T12:23:46;35.80;;;19.60;;
25980;SDS011;13772;52.996;9.124;2023-02-08T12:26:17;34.53;;;19.70;;
25980;SDS011;13772;52.996;9.124;2023-02-08T12:31:31;32.45;;;19.95;;
25980;SDS011;13772;52.996;9.124;2023-02-08T12:34:07;34.67;;;19.33;;
25980;SDS011;13772;52.996;9.124;2023-02-08T12:36:46;34.20;;;19.60;;
25980;SDS011;13772;52.996;9.124;2023-02-08T12:39:38;37.05;;;17.90;;
25980;SDS011;13772;52.996;9.124;2023-02-08T12:42:29;35.50;;;19.60;;
25980;SDS011;13772;52.996;9.124;2023-02-08T12:45:01;36.97;;;19.23;;
25980;SDS011;13772;52.996;9.124;2023-02-08T12:47:34;32.45;;;18.50;;
25980;SDS011;13772;52.996;9.124;2023-02-08T12:50:21;34.00;;;18.85;;
25980;SDS011;13772;52.996;9.124;2023-02-08T12:52:51;35.88;;;19.02;;
25980;SDS011;13772;52.996;9.124;2023-02-08T12:55:28;33.90;;;19.50;;
25980;SDS011;13772;52.996;9.124;2023-02-08T12:57:56;34.65;;;18.42;;
25980;SDS011;13772;52.996;9.124;2023-02-08T13:00:31;33.00;;;18.55;;
25980;SDS011;13772;52.996;9.124;2023-02-08T13:05:25;33.85;;;18.23;;
25980;SDS011;13772;52.996;9.124;2023-02-08T13:07:54;33.35;;;18.30;;
25980;SDS011;13772;52.996;9.124;2023-02-08T13:10:23;29.08;;;17.10;;
25980;SDS011;13772;52.996;9.124;2023-02-08T13:15:24;29.17;;;16.85;;
25980;SDS011;13772;52.996;9.124;2023-02-08T13:17:54;33.15;;;18.95;;
25980;SDS011;13772;52.996;9.124;2023-02-08T13:20:29;29.45;;;17.65;;
25980;SDS011;13772;52.996;9.124;2023-02-08T13:22:58;31.85;;;17.33;;
25980;SDS011;13772;52.996;9.124;2023-02-08T13:25:29;29.50;;;16.48;;
25980;SDS011;13772;52.996;9.124;2023-02-08T13:27:58;29.75;;;15.75;;
25980;SDS011;13772;52.996;9.124;2023-02-08T13:30:24;26.63;;;16.33;;
25980;SDS011;13772;52.996;9.124;2023-02-08T13:32:49;29.17;;;15.38;;
25980;SDS011;13772;52.996;9.124;2023-02-08T13:35:20;27.42;;;16.30;;
25980;SDS011;13772;52.996;9.124;2023-02-08T13:37:51;25.88;;;15.05;;
25980;SDS011;13772;52.996;9.124;2023-02-08T13:40:21;26.35;;;15.85;;
25980;SDS011;13772;52.996;9.124;2023-02-08T13:43:04;24.60;;;15.48;;
25980;SDS011;13772;52.996;9.124;2023-02-08T13:45:33;24.65;;;14.95;;
25980;SDS011;13772;52.996;9.124;2023-02-08T13:48:01;24.92;;;15.40;;
25980;SDS011;13772;52.996;9.124;2023-02-08T13:52:58;26.67;;;16.55;;
25980;SDS011;13772;52.996;9.124;2023-02-08T13:57:53;23.92;;;15.27;;
25980;SDS011;13772;52.996;9.124;2023-02-08T14:00:20;27.17;;;16.42;;
25980;SDS011;13772;52.996;9.124;2023-02-08T14:08:10;23.10;;;14.40;;
25980;SDS011;13772;52.996;9.124;2023-02-08T14:10:41;25.98;;;14.02;;
25980;SDS011;13772;52.996;9.124;2023-02-08T14:13:28;23.60;;;14.52;;
25980;SDS011;13772;52.996;9.124;2023-02-08T14:18:38;24.15;;;15.15;;
25980;SDS011;13772;52.996;9.124;2023-02-08T14:21:04;25.27;;;14.60;;
25980;SDS011;13772;52.996;9.124;2023-02-08T14:23:30;22.00;;;13.65;;
25980;SDS011;13772;52.996;9.124;2023-02-08T14:25:57;21.63;;;14.35;;
25980;SDS011;13772;52.996;9.124;2023-02-08T14:28:24;21.98;;;15.10;;
25980;SDS011;13772;52.996;9.124;2023-02-08T14:30:50;24.33;;;14.93;;
25980;SDS011;13772;52.996;9.124;2023-02-08T14:33:17;23.73;;;15.40;;
25980;SDS011;13772;52.996;9.124;2023-02-08T14:35:51;25.17;;;15.70;;
25980;SDS011;13772;52.996;9.124;2023-02-08T14:45:43;22.30;;;15.10;;
25980;SDS011;13772;52.996;9.124;2023-02-08T14:53:29;22.00;;;15.35;;
25980;SDS011;13772;52.996;9.124;2023-02-08T14:58:34;21.88;;;14.77;;
25980;SDS011;13772;52.996;9.124;2023-02-08T15:01:01;22.95;;;16.13;;
25980;SDS011;13772;52.996;9.124;2023-02-08T15:03:29;21.37;;;14.63;;
25980;SDS011;13772;52.996;9.124;2023-02-08T15:06:01;24.67;;;15.80;;
25980;SDS011;13772;52.996;9.124;2023-02-08T15:08:30;22.42;;;15.57;;
25980;SDS011;13772;52.996;9.124;2023-02-08T15:10:55;21.67;;;15.20;;
25980;SDS011;13772;52.996;9.124;2023-02-08T15:13:22;20.08;;;14.82;;
25980;SDS011;13772;52.996;9.124;2023-02-08T15:15:50;21.77;;;15.45;;
25980;SDS011;13772;52.996;9.124;2023-02-08T15:18:17;21.80;;;14.75;;
25980;SDS011;13772;52.996;9.124;2023-02-08T15:20:43;22.88;;;15.27;;
25980;SDS011;13772;52.996;9.124;2023-02-08T15:23:19;24.15;;;15.27;;
25980;SDS011;13772;52.996;9.124;2023-02-08T15:25:53;22.05;;;14.55;;
25980;SDS011;13772;52.996;9.124;2023-02-08T15:28:20;24.50;;;14.57;;
25980;SDS011;13772;52.996;9.124;2023-02-08T15:30:51;21.42;;;13.75;;
25980;SDS011;13772;52.996;9.124;2023-02-08T15:33:18;22.02;;;14.38;;
25980;SDS011;13772;52.996;9.124;2023-02-08T15:35:43;22.17;;;13.95;;
25980;SDS011;13772;52.996;9.124;2023-02-08T15:38:14;23.85;;;14.55;;
25980;SDS011;13772;52.996;9.124;2023-02-08T15:40:40;23.98;;;13.10;;
25980;SDS011;13772;52.996;9.124;2023-02-08T15:45:31;23.65;;;13.50;;
25980;SDS011;13772;52.996;9.124;2023-02-08T15:47:56;21.85;;;12.45;;
25980;SDS011;13772;52.996;9.124;2023-02-08T15:50:22;23.40;;;13.07;;
25980;SDS011;13772;52.996;9.124;2023-02-08T15:52:48;24.15;;;13.02;;
25980;SDS011;13772;52.996;9.124;2023-02-08T15:55:16;19.80;;;11.88;;
25980;SDS011;13772;52.996;9.124;2023-02-08T15:57:45;22.83;;;12.35;;
25980;SDS011;13772;52.996;9.124;2023-02-08T16:00:13;23.48;;;12.60;;
25980;SDS011;13772;52.996;9.124;2023-02-08T16:02:39;22.08;;;11.95;;
25980;SDS011;13772;52.996;9.124;2023-02-08T16:05:17;21.73;;;11.65;;
25980;SDS011;13772;52.996;9.124;2023-02-08T16:07:43;18.02;;;9.95;;
25980;SDS011;13772;52.996;9.124;2023-02-08T16:10:20;18.42;;;10.57;;
25980;SDS011;13772;52.996;9.124;2023-02-08T16:12:48;17.17;;;9.60;;
25980;SDS011;13772;52.996;9.124;2023-02-08T16:15:33;17.95;;;10.07;;
25980;SDS011;13772;52.996;9.124;2023-02-08T16:17:59;23.02;;;10.77;;
25980;SDS011;13772;52.996;9.124;2023-02-08T16:20:28;18.00;;;9.85;;
25980;SDS011;13772;52.996;9.124;2023-02-08T16:22:55;18.17;;;9.45;;
25980;SDS011;13772;52.996;9.124;2023-02-08T16:25:21;19.17;;;9.18;;
25980;SDS011;13772;52.996;9.124;2023-02-08T16:27:46;18.70;;;9.50;;
25980;SDS011;13772;52.996;9.124;2023-02-08T16:30:18;18.35;;;9.52;;
25980;SDS011;13772;52.996;9.124;2023-02-08T16:32:44;20.17;;;8.85;;
25980;SDS011;13772;52.996;9.124;2023-02-08T16:35:11;16.08;;;8.30;;
25980;SDS011;13772;52.996;9.124;2023-02-08T16:37:36;16.33;;;8.88;;
25980;SDS011;13772;52.996;9.124;2023-02-08T16:42:31;17.58;;;8.77;;
25980;SDS011;13772;52.996;9.124;2023-02-08T16:50:00;19.45;;;9.50;;
25980;SDS011;13772;52.996;9.124;2023-02-08T16:52:25;19.25;;;10.15;;
25980;SDS011;13772;52.996;9.124;2023-02-08T16:54:50;18.48;;;9.95;;
25980;SDS011;13772;52.996;9.124;2023-02-08T16:57:15;20.80;;;11.38;;
25980;SDS011;13772;52.996;9.124;2023-02-08T16:59:41;20.90;;;11.40;;
25980;SDS011;13772;52.996;9.124;2023-02-08T17:02:12;23.40;;;11.05;;
25980;SDS011;13772;52.996;9.124;2023-02-08T17:04:37;24.17;;;12.13;;
25980;SDS011;13772;52.996;9.124;2023-02-08T17:07:02;24.27;;;11.55;;
25980;SDS011;13772;52.996;9.124;2023-02-08T17:09:27;21.10;;;10.63;;
25980;SDS011;13772;52.996;9.124;2023-02-08T17:11:53;19.35;;;10.85;;
25980;SDS011;13772;52.996;9.124;2023-02-08T17:14:18;22.70;;;12.70;;
25980;SDS011;13772;52.996;9.124;2023-02-08T17:16:43;27.65;;;13.65;;
25980;SDS011;13772;52.996;9.124;2023-02-08T17:19:09;21.38;;;10.23;;
25980;SDS011;13772;52.996;9.124;2023-02-08T17:21:38;22.02;;;10.07;;
25980;SDS011;13772;52.996;9.124;2023-02-08T17:24:03;20.08;;;10.35;;
25980;SDS011;13772;52.996;9.124;2023-02-08T17:26:33;21.70;;;10.18;;
25980;SDS011;13772;52.996;9.124;2023-02-08T17:29:00;17.67;;;8.55;;
25980;SDS011;13772;52.996;9.124;2023-02-08T17:31:26;17.67;;;9.10;;
25980;SDS011;13772;52.996;9.124;2023-02-08T17:33:53;18.80;;;8.85;;
25980;SDS011;13772;52.996;9.124;2023-02-08T17:36:18;18.75;;;9.30;;
25980;SDS011;13772;52.996;9.124;2023-02-08T17:38:44;20.92;;;8.70;;
25980;SDS011;13772;52.996;9.124;2023-02-08T17:41:16;18.77;;;8.85;;
25980;SDS011;13772;52.996;9.124;2023-02-08T17:43:42;18.50;;;9.43;;
25980;SDS011;13772;52.996;9.124;2023-02-08T17:46:11;17.55;;;9.10;;
25980;SDS011;13772;52.996;9.124;2023-02-08T17:48:36;18.40;;;8.60;;
25980;SDS011;13772;52.996;9.124;2023-02-08T17:51:06;19.60;;;8.82;;
25980;SDS011;13772;52.996;9.124;2023-02-08T17:53:31;20.77;;;9.48;;
25980;SDS011;13772;52.996;9.124;2023-02-08T17:55:56;19.42;;;8.80;;
25980;SDS011;13772;52.996;9.124;2023-02-08T17:58:22;17.95;;;9.82;;
25980;SDS011;13772;52.996;9.124;2023-02-08T18:00:47;19.42;;;8.80;;
25980;SDS011;13772;52.996;9.124;2023-02-08T18:03:13;17.83;;;8.77;;
25980;SDS011;13772;52.996;9.124;2023-02-08T18:05:41;18.63;;;9.73;;
25980;SDS011;13772;52.996;9.124;2023-02-08T18:08:06;19.37;;;9.50;;
25980;SDS011;13772;52.996;9.124;2023-02-08T18:10:31;20.65;;;10.07;;
25980;SDS011;13772;52.996;9.124;2023-02-08T18:12:56;20.67;;;9.37;;
25980;SDS011;13772;52.996;9.124;2023-02-08T18:15:23;21.13;;;10.68;;
25980;SDS011;13772;52.996;9.124;2023-02-08T18:17:48;20.05;;;9.65;;
25980;SDS011;13772;52.996;9.124;2023-02-08T18:20:14;21.33;;;9.23;;
25980;SDS011;13772;52.996;9.124;2023-02-08T18:22:40;22.57;;;10.67;;
25980;SDS011;13772;52.996;9.124;2023-02-08T18:25:06;24.13;;;11.60;;
25980;SDS011;13772;52.996;9.124;2023-02-08T18:27:32;21.97;;;10.87;;
25980;SDS011;13772;52.996;9.124;2023-02-08T18:29:57;22.60;;;10.45;;
25980;SDS011;13772;52.996;9.124;2023-02-08T18:32:23;24.47;;;11.27;;
25980;SDS011;13772;52.996;9.124;2023-02-08T18:34:48;24.57;;;12.43;;
25980;SDS011;13772;52.996;9.124;2023-02-08T18:37:13;21.37;;;11.53;;
25980;SDS011;13772;52.996;9.124;2023-02-08T18:39:39;24.47;;;11.23;;
25980;SDS011;13772;52.996;9.124;2023-02-08T18:42:04;23.50;;;10.88;;
25980;SDS011;13772;52.996;9.124;2023-02-08T18:44:29;25.38;;;11.48;;
25980;SDS011;13772;52.996;9.124;2023-02-08T18:46:54;25.70;;;11.87;;
25980;SDS011;13772;52.996;9.124;2023-02-08T18:49:19;25.73;;;11.70;;
25980;SDS011;13772;52.996;9.124;2023-02-08T18:51:45;25.67;;;11.30;;
25980;SDS011;13772;52.996;9.124;2023-02-08T18:54:11;20.23;;;10.70;;
25980;SDS011;13772;52.996;9.124;2023-02-08T18:56:37;17.90;;;9.80;;
25980;SDS011;13772;52.996;9.124;2023-02-08T18:59:03;20.10;;;11.03;;
25980;SDS011;13772;52.996;9.124;2023-02-08T19:01:28;27.83;;;11.33;;
25980;SDS011;13772;52.996;9.124;2023-02-08T19:03:53;24.70;;;11.83;;
25980;SDS011;13772;52.996;9.124;2023-02-08T19:06:20;23.30;;;11.33;;
25980;SDS011;13772;52.996;9.124;2023-02-08T19:08:47;27.53;;;13.00;;
25980;SDS011;13772;52.996;9.124;2023-02-08T19:11:22;25.52;;;12.65;;
25980;SDS011;13772;52.996;9.124;2023-02-08T19:13:48;26.43;;;13.13;;
25980;SDS011;13772;52.996;9.124;2023-02-08T19:16:13;27.20;;;13.50;;
25980;SDS011;13772;52.996;9.124;2023-02-08T19:18:41;23.10;;;13.17;;
25980;SDS011;13772;52.996;9.124;2023-02-08T19:21:10;26.87;;;13.27;;
25980;SDS011;13772;52.996;9.124;2023-02-08T19:26:05;27.78;;;13.24;;
25980;SDS011;13772;52.996;9.124;2023-02-08T19:31:04;32.17;;;14.47;;
25980;SDS011;13772;52.996;9.124;2023-02-08T19:33:30;36.67;;;15.47;;
25980;SDS011;13772;52.996;9.124;2023-02-08T19:35:55;30.03;;;15.10;;
25980;SDS011;13772;52.996;9.124;2023-02-08T19:38:20;29.33;;;14.70;;
25980;SDS011;13772;52.996;9.124;2023-02-08T19:40:50;28.17;;;15.00;;
25980;SDS011;13772;52.996;9.124;2023-02-08T19:43:16;28.63;;;15.20;;
25980;SDS011;13772;52.996;9.124;2023-02-08T19:45:41;32.07;;;15.43;;
25980;SDS011;13772;52.996;9.124;2023-02-08T19:48:08;32.67;;;17.07;;
25980;SDS011;13772;52.996;9.124;2023-02-08T19:50:33;33.60;;;16.50;;
25980;SDS011;13772;52.996;9.124;2023-02-08T19:52:58;33.27;;;18.37;;
25980;SDS011;13772;52.996;9.124;2023-02-08T19:55:23;33.83;;;16.97;;
25980;SDS011;13772;52.996;9.124;2023-02-08T19:57:49;36.27;;;16.90;;
25980;SDS011;13772;52.996;9.124;2023-02-08T20:00:14;31.40;;;16.73;;
25980;SDS011;13772;52.996;9.124;2023-02-08T20:02:39;34.87;;;18.47;;
25980;SDS011;13772;52.996;9.124;2023-02-08T20:05:05;35.53;;;18.40;;
25980;SDS011;13772;52.996;9.124;2023-02-08T20:07:30;36.43;;;19.50;;
25980;SDS011;13772;52.996;9.124;2023-02-08T20:09:55;37.63;;;19.80;;
25980;SDS011;13772;52.996;9.124;2023-02-08T20:12:21;39.17;;;18.37;;
25980;SDS011;13772;52.996;9.124;2023-02-08T20:14:46;39.13;;;21.30;;
25980;SDS011;13772;52.996;9.124;2023-02-08T20:17:11;32.90;;;19.23;;
25980;SDS011;13772;52.996;9.124;2023-02-08T20:19:36;39.40;;;20.50;;
25980;SDS011;13772;52.996;9.124;2023-02-08T20:22:02;38.00;;;19.87;;
25980;SDS011;13772;52.996;9.124;2023-02-08T20:24:27;35.50;;;20.40;;
25980;SDS011;13772;52.996;9.124;2023-02-08T20:26:53;37.70;;;19.87;;
25980;SDS011;13772;52.996;9.124;2023-02-08T20:29:18;39.70;;;20.83;;
25980;SDS011;13772;52.996;9.124;2023-02-08T20:31:44;40.87;;;21.53;;
25980;SDS011;13772;52.996;9.124;2023-02-08T20:34:12;39.17;;;21.93;;
25980;SDS011;13772;52.996;9.124;2023-02-08T20:36:38;36.93;;;20.50;;
25980;SDS011;13772;52.996;9.124;2023-02-08T20:39:10;36.80;;;20.60;;
25980;SDS011;13772;52.996;9.124;2023-02-08T20:41:35;39.70;;;21.87;;
25980;SDS011;13772;52.996;9.124;2023-02-08T20:44:02;47.93;;;22.60;;
25980;SDS011;13772;52.996;9.124;2023-02-08T20:46:28;46.73;;;24.33;;
25980;SDS011;13772;52.996;9.124;2023-02-08T20:48:58;42.80;;;22.70;;
25980;SDS011;13772;52.996;9.124;2023-02-08T20:51:24;47.37;;;24.60;;
25980;SDS011;13772;52.996;9.124;2023-02-08T20:53:52;47.43;;;23.07;;
25980;SDS011;13772;52.996;9.124;2023-02-08T20:56:19;43.57;;;23.50;;
25980;SDS011;13772;52.996;9.124;2023-02-08T20:58:44;50.70;;;25.50;;
25980;SDS011;13772;52.996;9.124;2023-02-08T21:01:10;46.23;;;23.57;;
25980;SDS011;13772;52.996;9.124;2023-02-08T21:03:36;45.50;;;22.90;;
25980;SDS011;13772;52.996;9.124;2023-02-08T21:06:09;44.57;;;24.73;;
25980;SDS011;13772;52.996;9.124;2023-02-08T21:08:34;49.50;;;24.83;;
25980;SDS011;13772;52.996;9.124;2023-02-08T21:11:00;47.47;;;24.27;;
25980;SDS011;13772;52.996;9.124;2023-02-08T21:13:25;47.47;;;24.60;;
25980;SDS011;13772;52.996;9.124;2023-02-08T21:15:50;46.10;;;23.57;;
25980;SDS011;13772;52.996;9.124;2023-02-08T21:18:15;49.13;;;26.47;;
25980;SDS011;13772;52.996;9.124;2023-02-08T21:20:41;49.20;;;26.50;;
25980;SDS011;13772;52.996;9.124;2023-02-08T21:23:06;52.00;;;25.90;;
25980;SDS011;13772;52.996;9.124;2023-02-08T21:25:31;51.70;;;25.37;;
25980;SDS011;13772;52.996;9.124;2023-02-08T21:27:57;53.50;;;25.77;;
25980;SDS011;13772;52.996;9.124;2023-02-08T21:30:22;47.40;;;26.70;;
25980;SDS011;13772;52.996;9.124;2023-02-08T21:32:47;50.30;;;28.10;;
25980;SDS011;13772;52.996;9.124;2023-02-08T21:35:12;49.93;;;26.10;;
25980;SDS011;13772;52.996;9.124;2023-02-08T21:37:37;53.27;;;27.07;;
25980;SDS011;13772;52.996;9.124;2023-02-08T21:40:03;49.33;;;26.03;;
25980;SDS011;13772;52.996;9.124;2023-02-08T21:42:28;48.53;;;26.47;;
25980;SDS011;13772;52.996;9.124;2023-02-08T21:44:53;52.23;;;26.47;;
25980;SDS011;13772;52.996;9.124;2023-02-08T21:47:19;53.43;;;26.47;;
25980;SDS011;13772;52.996;9.124;2023-02-08T21:49:45;48.20;;;24.77;;
25980;SDS011;13772;52.996;9.124;2023-02-08T21:52:29;52.87;;;27.30;;
25980;SDS011;13772;52.996;9.124;2023-02-08T21:55:12;53.80;;;27.23;;
25980;SDS011;13772;52.996;9.124;2023-02-08T21:57:38;54.13;;;28.67;;
25980;SDS011;13772;52.996;9.124;2023-02-08T22:00:05;53.40;;;28.17;;
25980;SDS011;13772;52.996;9.124;2023-02-08T22:02:37;59.77;;;28.97;;
25980;SDS011;13772;52.996;9.124;2023-02-08T22:05:03;49.60;;;27.40;;
25980;SDS011;13772;52.996;9.124;2023-02-08T22:07:48;61.93;;;31.47;;
25980;SDS011;13772;52.996;9.124;2023-02-08T22:10:14;57.23;;;28.83;;
25980;SDS011;13772;52.996;9.124;2023-02-08T22:12:40;64.53;;;30.60;;
25980;SDS011;13772;52.996;9.124;2023-02-08T22:15:09;61.67;;;30.60;;
25980;SDS011;13772;52.996;9.124;2023-02-08T22:17:34;60.78;;;30.10;;
25980;SDS011;13772;52.996;9.124;2023-02-08T22:19:59;60.27;;;29.30;;
25980;SDS011;13772;52.996;9.124;2023-02-08T22:22:25;57.03;;;27.67;;
25980;SDS011;13772;52.996;9.124;2023-02-08T22:24:50;58.33;;;31.40;;
25980;SDS011;13772;52.996;9.124;2023-02-08T22:27:15;63.30;;;31.20;;
25980;SDS011;13772;52.996;9.124;2023-02-08T22:29:40;59.80;;;30.43;;
25980;SDS011;13772;52.996;9.124;2023-02-08T22:32:05;63.97;;;30.57;;
25980;SDS011;13772;52.996;9.124;2023-02-08T22:34:35;68.63;;;33.13;;
25980;SDS011;13772;52.996;9.124;2023-02-08T22:37:00;58.10;;;29.77;;
25980;SDS011;13772;52.996;9.124;2023-02-08T22:39:28;65.53;;;30.87;;
25980;SDS011;13772;52.996;9.124;2023-02-08T22:41:53;65.90;;;31.30;;
25980;SDS011;13772;52.996;9.124;2023-02-08T22:44:18;61.13;;;30.73;;
25980;SDS011;13772;52.996;9.124;2023-02-08T22:46:43;59.03;;;31.40;;
